sensor_id;sensor_type;location;lat;lon;timestamp;temperature;humidity
52435;DHT22;38354;52.892;6.148;2023-08-01T03:00:38;15.20;99.90
52435;DHT22;38354;52.892;6.148;2023-08-01T03:03:04;15.20;99.90
52435;DHT22;38354;52.892;6.148;2023-08-01T03:08:34;15.10;99.90
52435;DHT22;38354;52.892;6.148;2023-08-01T03:10:59;15.00;99.90
52435;DHT22;38354;52.892;6.148;2023-08-01T03:13:25;14.90;99.90
52435;DHT22;38354;52.892;6.148;2023-08-01T03:15:51;14.90;99.90
52435;DHT22;38354;52.892;6.148;2023-08-01T03:18:17;14.80;99.90
52435;DHT22;38354;52.892;6.148;2023-08-01T03:20:42;14.80;99.90
52435;DHT22;38354;52.892;6.148;2023-08-01T03:23:08;14.70;99.90
52435;DHT22;38354;52.892;6.148;2023-08-01T03:25:33;14.70;99.90
52435;DHT22;38354;52.892;6.148;2023-08-01T03:27:59;14.70;99.90
52435;DHT22;38354;52.892;6.148;2023-08-01T03:30:24;14.70;99.90
52435;DHT22;38354;52.892;6.148;2023-08-01T03:32:51;14.60;99.90
52435;DHT22;38354;52.892;6.148;2023-08-01T03:35:20;14.50;99.90
52435;DHT22;38354;52.892;6.148;2023-08-01T03:37:45;14.60;99.90
52435;DHT22;38354;52.892;6.148;2023-08-01T03:40:11;14.50;99.90
52435;DHT22;38354;52.892;6.148;2023-08-01T03:42:37;14.60;99.90
52435;DHT22;38354;52.892;6.148;2023-08-01T03:45:02;14.50;99.90
52435;DHT22;38354;52.892;6.148;2023-08-01T03:47:28;14.50;99.90
52435;DHT22;38354;52.892;6.148;2023-08-01T03:49:54;14.50;99.90
52435;DHT22;38354;52.892;6.148;2023-08-01T03:52:19;14.50;99.90
52435;DHT22;38354;52.892;6.148;2023-08-01T03:54:45;14.50;99.90
52435;DHT22;38354;52.892;6.148;2023-08-01T03:57:11;14.50;99.90
52435;DHT22;38354;52.892;6.148;2023-08-01T03:59:37;14.50;99.90
52435;DHT22;38354;52.892;6.148;2023-08-01T04:02:02;14.50;99.90
52435;DHT22;38354;52.892;6.148;2023-08-01T04:04:28;14.40;99.90
52435;DHT22;38354;52.892;6.148;2023-08-01T04:06:56;14.40;99.90
52435;DHT22;38354;52.892;6.148;2023-08-01T04:09:21;14.40;99.90
52435;DHT22;38354;52.892;6.148;2023-08-01T04:11:47;14.50;99.90
52435;DHT22;38354;52.892;6.148;2023-08-01T04:14:13;14.40;99.90
52435;DHT22;38354;52.892;6.148;2023-08-01T04:16:39;14.50;99.90
52435;DHT22;38354;52.892;6.148;2023-08-01T04:19:04;14.50;99.90
52435;DHT22;38354;52.892;6.148;2023-08-01T04:21:30;14.50;99.90
52435;DHT22;38354;52.892;6.148;2023-08-01T04:23:55;14.40;99.90
52435;DHT22;38354;52.892;6.148;2023-08-01T04:26:21;14.50;99.90
52435;DHT22;38354;52.892;6.148;2023-08-01T04:28:47;14.50;99.90
52435;DHT22;38354;52.892;6.148;2023-08-01T04:31:13;14.50;99.90
52435;DHT22;38354;52.892;6.148;2023-08-01T04:33:39;14.50;99.90
52435;DHT22;38354;52.892;6.148;2023-08-01T04:36:04;14.40;99.90
52435;DHT22;38354;52.892;6.148;2023-08-01T04:38:30;14.50;99.90
52435;DHT22;38354;52.892;6.148;2023-08-01T04:40:55;14.50;99.90
52435;DHT22;38354;52.892;6.148;2023-08-01T04:43:21;14.50;99.90
52435;DHT22;38354;52.892;6.148;2023-08-01T04:45:46;14.50;99.90
52435;DHT22;38354;52.892;6.148;2023-08-01T04:48:12;14.50;99.90
52435;DHT22;38354;52.892;6.148;2023-08-01T04:50:37;14.50;99.90
52435;DHT22;38354;52.892;6.148;2023-08-01T04:53:03;14.50;99.90
52435;DHT22;38354;52.892;6.148;2023-08-01T04:55:29;14.60;99.90
52435;DHT22;38354;52.892;6.148;2023-08-01T04:57:55;14.60;99.90
52435;DHT22;38354;52.892;6.148;2023-08-01T05:00:21;14.60;99.90
52435;DHT22;38354;52.892;6.148;2023-08-01T05:02:49;14.60;99.90
52435;DHT22;38354;52.892;6.148;2023-08-01T05:05:15;14.70;99.90
52435;DHT22;38354;52.892;6.148;2023-08-01T05:07:41;14.60;99.90
52435;DHT22;38354;52.892;6.148;2023-08-01T05:10:07;14.70;99.90
52435;DHT22;38354;52.892;6.148;2023-08-01T05:12:33;14.70;99.90
52435;DHT22;38354;52.892;6.148;2023-08-01T05:14:58;14.70;99.90
52435;DHT22;38354;52.892;6.148;2023-08-01T05:17:24;14.70;99.90
52435;DHT22;38354;52.892;6.148;2023-08-01T05:19:50;14.70;99.90
52435;DHT22;38354;52.892;6.148;2023-08-01T05:22:15;14.80;99.90
52435;DHT22;38354;52.892;6.148;2023-08-01T05:24:41;14.80;99.90
52435;DHT22;38354;52.892;6.148;2023-08-01T05:27:07;14.80;99.90
52435;DHT22;38354;52.892;6.148;2023-08-01T05:29:32;14.80;99.90
52435;DHT22;38354;52.892;6.148;2023-08-01T05:31:58;14.90;99.90
52435;DHT22;38354;52.892;6.148;2023-08-01T05:34:23;14.90;99.90
52435;DHT22;38354;52.892;6.148;2023-08-01T05:36:49;15.00;99.90
52435;DHT22;38354;52.892;6.148;2023-08-01T05:39:16;14.90;99.90
52435;DHT22;38354;52.892;6.148;2023-08-01T05:41:42;15.00;99.90
52435;DHT22;38354;52.892;6.148;2023-08-01T05:44:08;15.00;99.90
52435;DHT22;38354;52.892;6.148;2023-08-01T05:46:33;15.00;99.90
52435;DHT22;38354;52.892;6.148;2023-08-01T05:48:59;15.00;99.90
52435;DHT22;38354;52.892;6.148;2023-08-01T05:51:24;15.00;99.90
52435;DHT22;38354;52.892;6.148;2023-08-01T05:53:50;15.00;99.90
52435;DHT22;38354;52.892;6.148;2023-08-01T05:56:16;15.00;99.90
52435;DHT22;38354;52.892;6.148;2023-08-01T05:58:41;15.10;99.90
52435;DHT22;38354;52.892;6.148;2023-08-01T06:01:09;15.10;99.90
52435;DHT22;38354;52.892;6.148;2023-08-01T06:03:35;15.10;99.90
52435;DHT22;38354;52.892;6.148;2023-08-01T06:06:00;15.10;99.90
52435;DHT22;38354;52.892;6.148;2023-08-01T06:08:26;15.10;99.90
52435;DHT22;38354;52.892;6.148;2023-08-01T06:10:51;15.10;99.90
52435;DHT22;38354;52.892;6.148;2023-08-01T06:13:17;15.10;99.90
52435;DHT22;38354;52.892;6.148;2023-08-01T06:15:42;15.10;99.90
52435;DHT22;38354;52.892;6.148;2023-08-01T06:18:08;15.10;99.90
52435;DHT22;38354;52.892;6.148;2023-08-01T06:20:34;15.10;99.90
52435;DHT22;38354;52.892;6.148;2023-08-01T06:22:59;15.00;99.90
52435;DHT22;38354;52.892;6.148;2023-08-01T06:25:25;15.10;99.90
52435;DHT22;38354;52.892;6.148;2023-08-01T06:27:51;15.00;99.90
52435;DHT22;38354;52.892;6.148;2023-08-01T06:30:16;15.10;99.90
52435;DHT22;38354;52.892;6.148;2023-08-01T06:32:42;15.10;99.90
52435;DHT22;38354;52.892;6.148;2023-08-01T06:35:08;15.10;99.90
52435;DHT22;38354;52.892;6.148;2023-08-01T06:37:33;15.10;99.90
52435;DHT22;38354;52.892;6.148;2023-08-01T06:39:59;15.20;99.90
52435;DHT22;38354;52.892;6.148;2023-08-01T06:42:24;15.20;99.90
52435;DHT22;38354;52.892;6.148;2023-08-01T06:44:50;15.30;99.90
52435;DHT22;38354;52.892;6.148;2023-08-01T06:47:16;15.30;99.90
52435;DHT22;38354;52.892;6.148;2023-08-01T06:49:41;15.30;99.90
52435;DHT22;38354;52.892;6.148;2023-08-01T06:52:07;15.30;99.90
52435;DHT22;38354;52.892;6.148;2023-08-01T06:54:36;15.40;99.90
52435;DHT22;38354;52.892;6.148;2023-08-01T06:57:01;15.50;99.90
52435;DHT22;38354;52.892;6.148;2023-08-01T06:59:27;15.50;99.90
52435;DHT22;38354;52.892;6.148;2023-08-01T07:01:53;15.50;99.90
52435;DHT22;38354;52.892;6.148;2023-08-01T07:04:18;15.50;99.90
52435;DHT22;38354;52.892;6.148;2023-08-01T07:06:44;15.50;99.90
52435;DHT22;38354;52.892;6.148;2023-08-01T07:09:09;15.50;99.90
52435;DHT22;38354;52.892;6.148;2023-08-01T07:11:35;15.50;99.90
52435;DHT22;38354;52.892;6.148;2023-08-01T07:14:01;15.50;99.90
52435;DHT22;38354;52.892;6.148;2023-08-01T07:16:27;15.40;99.90
52435;DHT22;38354;52.892;6.148;2023-08-01T07:18:52;15.40;99.90
52435;DHT22;38354;52.892;6.148;2023-08-01T07:21:18;15.40;99.90
52435;DHT22;38354;52.892;6.148;2023-08-01T07:23:45;15.50;99.90
52435;DHT22;38354;52.892;6.148;2023-08-01T07:26:13;15.50;99.90
52435;DHT22;38354;52.892;6.148;2023-08-01T07:28:39;15.50;99.90
52435;DHT22;38354;52.892;6.148;2023-08-01T07:31:05;15.50;99.90
52435;DHT22;38354;52.892;6.148;2023-08-01T07:33:31;15.40;99.90
52435;DHT22;38354;52.892;6.148;2023-08-01T07:35:57;15.50;99.90
52435;DHT22;38354;52.892;6.148;2023-08-01T07:38:23;15.50;99.90
52435;DHT22;38354;52.892;6.148;2023-08-01T07:40:49;15.40;99.90
52435;DHT22;38354;52.892;6.148;2023-08-01T07:43:14;15.40;99.90
52435;DHT22;38354;52.892;6.148;2023-08-01T07:45:40;15.50;99.90
52435;DHT22;38354;52.892;6.148;2023-08-01T07:48:06;15.50;99.90
52435;DHT22;38354;52.892;6.148;2023-08-01T07:50:31;15.50;99.90
52435;DHT22;38354;52.892;6.148;2023-08-01T07:52:57;15.50;99.90
52435;DHT22;38354;52.892;6.148;2023-08-01T07:55:23;15.40;99.90
52435;DHT22;38354;52.892;6.148;2023-08-01T07:57:48;15.40;99.90
52435;DHT22;38354;52.892;6.148;2023-08-01T08:00:14;15.40;99.90
52435;DHT22;38354;52.892;6.148;2023-08-01T08:02:43;15.40;99.90
52435;DHT22;38354;52.892;6.148;2023-08-01T08:05:20;15.30;99.90
52435;DHT22;38354;52.892;6.148;2023-08-01T08:07:48;15.20;99.90
52435;DHT22;38354;52.892;6.148;2023-08-01T08:10:14;15.20;99.90
52435;DHT22;38354;52.892;6.148;2023-08-01T08:12:40;15.20;99.90
52435;DHT22;38354;52.892;6.148;2023-08-01T08:15:06;15.20;99.90
52435;DHT22;38354;52.892;6.148;2023-08-01T08:17:31;15.20;99.90
52435;DHT22;38354;52.892;6.148;2023-08-01T08:19:57;15.20;99.90
52435;DHT22;38354;52.892;6.148;2023-08-01T08:22:22;15.20;99.90
52435;DHT22;38354;52.892;6.148;2023-08-01T08:24:48;15.20;99.90
52435;DHT22;38354;52.892;6.148;2023-08-01T08:27:17;15.10;99.90
52435;DHT22;38354;52.892;6.148;2023-08-01T08:29:43;15.10;99.90
52435;DHT22;38354;52.892;6.148;2023-08-01T08:32:08;15.10;99.90
52435;DHT22;38354;52.892;6.148;2023-08-01T08:34:37;15.10;99.90
52435;DHT22;38354;52.892;6.148;2023-08-01T08:37:03;15.10;99.90
52435;DHT22;38354;52.892;6.148;2023-08-01T08:39:29;15.00;99.90
52435;DHT22;38354;52.892;6.148;2023-08-01T08:41:55;15.10;99.90
52435;DHT22;38354;52.892;6.148;2023-08-01T08:44:20;15.10;99.90
52435;DHT22;38354;52.892;6.148;2023-08-01T08:46:49;15.20;99.90
52435;DHT22;38354;52.892;6.148;2023-08-01T08:49:15;15.10;99.90
52435;DHT22;38354;52.892;6.148;2023-08-01T08:51:41;15.20;99.90
52435;DHT22;38354;52.892;6.148;2023-08-01T08:54:08;15.20;99.90
52435;DHT22;38354;52.892;6.148;2023-08-01T08:56:34;15.20;99.90
52435;DHT22;38354;52.892;6.148;2023-08-01T08:59:00;15.20;99.90
52435;DHT22;38354;52.892;6.148;2023-08-01T09:01:26;15.20;99.90
52435;DHT22;38354;52.892;6.148;2023-08-01T09:03:52;15.10;99.90
52435;DHT22;38354;52.892;6.148;2023-08-01T09:06:24;15.20;99.90
52435;DHT22;38354;52.892;6.148;2023-08-01T09:08:50;15.20;99.90
52435;DHT22;38354;52.892;6.148;2023-08-01T09:11:19;15.20;99.90
52435;DHT22;38354;52.892;6.148;2023-08-01T09:13:44;15.20;99.90
52435;DHT22;38354;52.892;6.148;2023-08-01T09:16:10;15.30;99.90
52435;DHT22;38354;52.892;6.148;2023-08-01T09:18:52;15.40;99.90
52435;DHT22;38354;52.892;6.148;2023-08-01T09:21:21;15.60;99.90
52435;DHT22;38354;52.892;6.148;2023-08-01T09:23:47;15.70;99.90
52435;DHT22;38354;52.892;6.148;2023-08-01T09:26:16;15.90;99.90
52435;DHT22;38354;52.892;6.148;2023-08-01T09:28:42;16.00;99.90
52435;DHT22;38354;52.892;6.148;2023-08-01T09:31:09;16.10;99.90
52435;DHT22;38354;52.892;6.148;2023-08-01T09:33:39;16.20;99.90
52435;DHT22;38354;52.892;6.148;2023-08-01T09:36:06;16.30;99.90
52435;DHT22;38354;52.892;6.148;2023-08-01T09:38:35;16.40;99.90
52435;DHT22;38354;52.892;6.148;2023-08-01T09:41:01;16.30;99.90
52435;DHT22;38354;52.892;6.148;2023-08-01T09:43:34;16.30;99.90
52435;DHT22;38354;52.892;6.148;2023-08-01T09:46:06;16.40;99.90
52435;DHT22;38354;52.892;6.148;2023-08-01T09:48:31;16.40;99.90
52435;DHT22;38354;52.892;6.148;2023-08-01T09:51:11;16.40;99.90
52435;DHT22;38354;52.892;6.148;2023-08-01T09:53:50;16.40;99.90
52435;DHT22;38354;52.892;6.148;2023-08-01T09:56:18;16.40;99.90
52435;DHT22;38354;52.892;6.148;2023-08-01T09:58:44;16.40;99.90
52435;DHT22;38354;52.892;6.148;2023-08-01T10:01:10;16.40;99.90
52435;DHT22;38354;52.892;6.148;2023-08-01T10:03:36;16.70;99.90
52435;DHT22;38354;52.892;6.148;2023-08-01T10:06:04;16.70;99.90
52435;DHT22;38354;52.892;6.148;2023-08-01T10:08:30;16.70;99.90
52435;DHT22;38354;52.892;6.148;2023-08-01T10:10:58;16.60;99.90
52435;DHT22;38354;52.892;6.148;2023-08-01T10:13:25;16.60;99.90
52435;DHT22;38354;52.892;6.148;2023-08-01T10:15:52;16.60;99.90
52435;DHT22;38354;52.892;6.148;2023-08-01T10:18:18;16.60;99.90
52435;DHT22;38354;52.892;6.148;2023-08-01T10:20:44;16.60;99.90
52435;DHT22;38354;52.892;6.148;2023-08-01T10:23:10;16.60;99.90
52435;DHT22;38354;52.892;6.148;2023-08-01T10:25:36;16.70;99.90
52435;DHT22;38354;52.892;6.148;2023-08-01T10:28:05;16.60;99.90
52435;DHT22;38354;52.892;6.148;2023-08-01T10:30:31;16.60;99.90
52435;DHT22;38354;52.892;6.148;2023-08-01T10:33:18;16.70;99.90
52435;DHT22;38354;52.892;6.148;2023-08-01T10:35:43;16.90;99.90
52435;DHT22;38354;52.892;6.148;2023-08-01T10:38:12;17.00;99.90
52435;DHT22;38354;52.892;6.148;2023-08-01T10:40:41;17.00;99.90
52435;DHT22;38354;52.892;6.148;2023-08-01T10:43:23;17.20;99.90
52435;DHT22;38354;52.892;6.148;2023-08-01T10:46:04;17.40;99.90
52435;DHT22;38354;52.892;6.148;2023-08-01T10:48:30;17.50;99.90
52435;DHT22;38354;52.892;6.148;2023-08-01T10:50:56;17.40;99.90
52435;DHT22;38354;52.892;6.148;2023-08-01T10:53:22;17.30;99.90
52435;DHT22;38354;52.892;6.148;2023-08-01T10:55:48;17.30;99.90
52435;DHT22;38354;52.892;6.148;2023-08-01T10:58:14;17.30;99.90
52435;DHT22;38354;52.892;6.148;2023-08-01T11:00:40;17.30;99.90
52435;DHT22;38354;52.892;6.148;2023-08-01T11:03:06;17.30;99.90
52435;DHT22;38354;52.892;6.148;2023-08-01T11:05:32;17.10;99.90
52435;DHT22;38354;52.892;6.148;2023-08-01T11:08:01;17.10;99.90
52435;DHT22;38354;52.892;6.148;2023-08-01T11:10:28;17.00;99.90
52435;DHT22;38354;52.892;6.148;2023-08-01T11:12:54;17.00;99.90
52435;DHT22;38354;52.892;6.148;2023-08-01T11:15:23;17.20;99.90
52435;DHT22;38354;52.892;6.148;2023-08-01T11:17:49;17.30;99.90
52435;DHT22;38354;52.892;6.148;2023-08-01T11:20:15;17.40;99.90
52435;DHT22;38354;52.892;6.148;2023-08-01T11:22:57;17.60;99.90
52435;DHT22;38354;52.892;6.148;2023-08-01T11:25:35;17.60;99.90
52435;DHT22;38354;52.892;6.148;2023-08-01T11:28:03;17.50;99.90
52435;DHT22;38354;52.892;6.148;2023-08-01T11:30:37;17.00;99.90
52435;DHT22;38354;52.892;6.148;2023-08-01T11:33:13;16.70;99.90
52435;DHT22;38354;52.892;6.148;2023-08-01T11:35:40;16.50;99.90
52435;DHT22;38354;52.892;6.148;2023-08-01T11:38:05;16.30;99.90
52435;DHT22;38354;52.892;6.148;2023-08-01T11:40:32;16.20;99.90
52435;DHT22;38354;52.892;6.148;2023-08-01T11:43:00;16.30;99.90
52435;DHT22;38354;52.892;6.148;2023-08-01T11:45:26;16.50;99.90
52435;DHT22;38354;52.892;6.148;2023-08-01T11:48:01;16.70;99.90
52435;DHT22;38354;52.892;6.148;2023-08-01T11:50:27;16.90;99.90
52435;DHT22;38354;52.892;6.148;2023-08-01T11:52:52;17.00;99.90
52435;DHT22;38354;52.892;6.148;2023-08-01T11:55:19;17.20;99.90
52435;DHT22;38354;52.892;6.148;2023-08-01T11:57:51;17.30;99.90
52435;DHT22;38354;52.892;6.148;2023-08-01T12:00:21;17.30;99.90
52435;DHT22;38354;52.892;6.148;2023-08-01T12:02:46;17.40;99.90
52435;DHT22;38354;52.892;6.148;2023-08-01T12:05:20;17.40;99.90
52435;DHT22;38354;52.892;6.148;2023-08-01T12:07:45;17.40;99.90
52435;DHT22;38354;52.892;6.148;2023-08-01T12:10:11;17.20;99.90
52435;DHT22;38354;52.892;6.148;2023-08-01T12:12:43;16.70;99.90
52435;DHT22;38354;52.892;6.148;2023-08-01T12:15:08;16.30;99.90
52435;DHT22;38354;52.892;6.148;2023-08-01T12:17:34;16.20;99.90
52435;DHT22;38354;52.892;6.148;2023-08-01T12:20:00;16.00;99.90
52435;DHT22;38354;52.892;6.148;2023-08-01T12:22:25;16.10;99.90
52435;DHT22;38354;52.892;6.148;2023-08-01T12:24:52;16.10;99.90
52435;DHT22;38354;52.892;6.148;2023-08-01T12:27:18;16.30;99.90
52435;DHT22;38354;52.892;6.148;2023-08-01T12:29:47;16.40;99.90
52435;DHT22;38354;52.892;6.148;2023-08-01T12:32:12;16.50;99.90
52435;DHT22;38354;52.892;6.148;2023-08-01T12:34:39;16.50;99.90
52435;DHT22;38354;52.892;6.148;2023-08-01T12:37:05;16.50;99.90
52435;DHT22;38354;52.892;6.148;2023-08-01T12:39:30;16.50;99.90
52435;DHT22;38354;52.892;6.148;2023-08-01T12:41:56;16.40;99.90
52435;DHT22;38354;52.892;6.148;2023-08-01T12:44:22;16.50;99.90
52435;DHT22;38354;52.892;6.148;2023-08-01T12:46:48;16.60;99.90
52435;DHT22;38354;52.892;6.148;2023-08-01T12:49:13;16.90;99.90
52435;DHT22;38354;52.892;6.148;2023-08-01T12:51:39;17.10;99.90
52435;DHT22;38354;52.892;6.148;2023-08-01T12:54:04;17.40;99.90
52435;DHT22;38354;52.892;6.148;2023-08-01T12:56:32;17.60;99.90
52435;DHT22;38354;52.892;6.148;2023-08-01T12:58:58;17.80;99.90
52435;DHT22;38354;52.892;6.148;2023-08-01T13:01:24;17.90;99.90
52435;DHT22;38354;52.892;6.148;2023-08-01T13:03:49;17.90;99.90
52435;DHT22;38354;52.892;6.148;2023-08-01T13:06:15;17.90;99.90
52435;DHT22;38354;52.892;6.148;2023-08-01T13:08:40;18.00;99.90
52435;DHT22;38354;52.892;6.148;2023-08-01T13:11:11;18.10;99.90
52435;DHT22;38354;52.892;6.148;2023-08-01T13:13:38;18.10;99.90
52435;DHT22;38354;52.892;6.148;2023-08-01T13:16:04;18.20;99.90
52435;DHT22;38354;52.892;6.148;2023-08-01T13:18:29;18.20;99.90
52435;DHT22;38354;52.892;6.148;2023-08-01T13:20:56;18.10;99.90
52435;DHT22;38354;52.892;6.148;2023-08-01T13:23:22;18.10;99.90
52435;DHT22;38354;52.892;6.148;2023-08-01T13:25:48;17.90;99.90
52435;DHT22;38354;52.892;6.148;2023-08-01T13:28:14;17.80;99.90
52435;DHT22;38354;52.892;6.148;2023-08-01T13:30:39;17.90;99.90
52435;DHT22;38354;52.892;6.148;2023-08-01T13:33:05;18.00;99.90
52435;DHT22;38354;52.892;6.148;2023-08-01T13:35:31;18.10;99.90
52435;DHT22;38354;52.892;6.148;2023-08-01T13:37:56;18.20;99.90
52435;DHT22;38354;52.892;6.148;2023-08-01T13:40:24;18.20;99.90
52435;DHT22;38354;52.892;6.148;2023-08-01T13:42:49;18.20;99.90
52435;DHT22;38354;52.892;6.148;2023-08-01T13:45:15;18.10;99.90
52435;DHT22;38354;52.892;6.148;2023-08-01T13:47:41;18.00;99.90
52435;DHT22;38354;52.892;6.148;2023-08-01T13:50:06;17.80;99.90
52435;DHT22;38354;52.892;6.148;2023-08-01T13:52:32;17.50;99.90
52435;DHT22;38354;52.892;6.148;2023-08-01T13:55:01;17.20;99.90
52435;DHT22;38354;52.892;6.148;2023-08-01T13:57:28;17.00;99.90
52435;DHT22;38354;52.892;6.148;2023-08-01T13:59:53;16.80;99.90
52435;DHT22;38354;52.892;6.148;2023-08-01T14:02:19;16.50;99.90
52435;DHT22;38354;52.892;6.148;2023-08-01T14:04:50;16.50;99.90
52435;DHT22;38354;52.892;6.148;2023-08-01T14:10:01;16.50;99.90
52435;DHT22;38354;52.892;6.148;2023-08-01T14:12:30;16.60;99.90
52435;DHT22;38354;52.892;6.148;2023-08-01T14:14:55;16.80;99.90
52435;DHT22;38354;52.892;6.148;2023-08-01T14:19:57;17.00;99.90
52435;DHT22;38354;52.892;6.148;2023-08-01T14:22:22;17.00;99.90
52435;DHT22;38354;52.892;6.148;2023-08-01T14:24:51;17.00;99.90
52435;DHT22;38354;52.892;6.148;2023-08-01T14:27:17;17.00;99.90
52435;DHT22;38354;52.892;6.148;2023-08-01T14:29:45;17.00;99.90
52435;DHT22;38354;52.892;6.148;2023-08-01T14:32:11;17.20;99.90
52435;DHT22;38354;52.892;6.148;2023-08-01T14:34:36;17.30;99.90
52435;DHT22;38354;52.892;6.148;2023-08-01T14:37:03;17.40;99.90
52435;DHT22;38354;52.892;6.148;2023-08-01T14:39:28;17.40;99.90
52435;DHT22;38354;52.892;6.148;2023-08-01T14:41:54;17.30;99.90
52435;DHT22;38354;52.892;6.148;2023-08-01T14:44:19;17.30;99.90
52435;DHT22;38354;52.892;6.148;2023-08-01T14:46:45;17.20;99.90
52435;DHT22;38354;52.892;6.148;2023-08-01T14:49:11;17.10;99.90
52435;DHT22;38354;52.892;6.148;2023-08-01T14:51:37;17.00;99.90
52435;DHT22;38354;52.892;6.148;2023-08-01T14:54:02;16.80;99.90
52435;DHT22;38354;52.892;6.148;2023-08-01T14:56:28;16.60;99.90
52435;DHT22;38354;52.892;6.148;2023-08-01T14:58:57;16.60;99.90
52435;DHT22;38354;52.892;6.148;2023-08-01T15:01:24;16.50;99.90
52435;DHT22;38354;52.892;6.148;2023-08-01T15:03:50;16.40;99.90
52435;DHT22;38354;52.892;6.148;2023-08-01T15:06:38;16.50;99.90
52435;DHT22;38354;52.892;6.148;2023-08-01T15:11:39;16.60;99.90
52435;DHT22;38354;52.892;6.148;2023-08-01T15:14:18;16.70;99.90
52435;DHT22;38354;52.892;6.148;2023-08-01T15:16:43;16.80;99.90
52435;DHT22;38354;52.892;6.148;2023-08-01T15:19:09;17.00;99.90
52435;DHT22;38354;52.892;6.148;2023-08-01T15:21:34;17.00;99.90
52435;DHT22;38354;52.892;6.148;2023-08-01T15:24:02;16.90;99.90
52435;DHT22;38354;52.892;6.148;2023-08-01T15:29:10;16.80;99.90
52435;DHT22;38354;52.892;6.148;2023-08-01T15:31:35;16.90;99.90
52435;DHT22;38354;52.892;6.148;2023-08-01T15:34:01;17.00;99.90
52435;DHT22;38354;52.892;6.148;2023-08-01T15:36:27;17.00;99.90
52435;DHT22;38354;52.892;6.148;2023-08-01T15:38:53;17.00;99.90
52435;DHT22;38354;52.892;6.148;2023-08-01T15:41:19;17.10;99.90
52435;DHT22;38354;52.892;6.148;2023-08-01T15:43:44;17.10;99.90
52435;DHT22;38354;52.892;6.148;2023-08-01T15:46:10;17.00;99.90
52435;DHT22;38354;52.892;6.148;2023-08-01T15:48:36;17.00;99.90
52435;DHT22;38354;52.892;6.148;2023-08-01T15:51:02;17.00;99.90
52435;DHT22;38354;52.892;6.148;2023-08-01T15:53:28;17.00;99.90
52435;DHT22;38354;52.892;6.148;2023-08-01T15:56:03;17.00;99.90
52435;DHT22;38354;52.892;6.148;2023-08-01T15:58:29;17.00;99.90
52435;DHT22;38354;52.892;6.148;2023-08-01T16:00:55;17.00;99.90
52435;DHT22;38354;52.892;6.148;2023-08-01T16:03:22;17.00;99.90
52435;DHT22;38354;52.892;6.148;2023-08-01T16:05:48;17.20;99.90
52435;DHT22;38354;52.892;6.148;2023-08-01T16:08:14;17.30;99.90
52435;DHT22;38354;52.892;6.148;2023-08-01T16:10:40;17.40;99.90
52435;DHT22;38354;52.892;6.148;2023-08-01T16:13:07;17.40;99.90
52435;DHT22;38354;52.892;6.148;2023-08-01T16:15:32;17.40;99.90
52435;DHT22;38354;52.892;6.148;2023-08-01T16:17:58;17.50;99.90
52435;DHT22;38354;52.892;6.148;2023-08-01T16:20:23;17.50;99.90
52435;DHT22;38354;52.892;6.148;2023-08-01T16:22:49;17.40;99.90
52435;DHT22;38354;52.892;6.148;2023-08-01T16:25:15;17.40;99.90
52435;DHT22;38354;52.892;6.148;2023-08-01T16:27:40;17.30;99.90
52435;DHT22;38354;52.892;6.148;2023-08-01T16:30:06;17.30;99.90
52435;DHT22;38354;52.892;6.148;2023-08-01T16:32:33;17.20;99.90
52435;DHT22;38354;52.892;6.148;2023-08-01T16:34:58;17.10;99.90
52435;DHT22;38354;52.892;6.148;2023-08-01T16:37:24;17.00;99.90
52435;DHT22;38354;52.892;6.148;2023-08-01T16:39:52;16.80;99.90
52435;DHT22;38354;52.892;6.148;2023-08-01T16:42:18;16.70;99.90
52435;DHT22;38354;52.892;6.148;2023-08-01T16:44:43;16.60;99.90
52435;DHT22;38354;52.892;6.148;2023-08-01T16:47:09;16.50;99.90
52435;DHT22;38354;52.892;6.148;2023-08-01T16:49:34;16.50;99.90
52435;DHT22;38354;52.892;6.148;2023-08-01T16:52:00;16.60;99.90
52435;DHT22;38354;52.892;6.148;2023-08-01T16:54:25;16.60;99.90
52435;DHT22;38354;52.892;6.148;2023-08-01T16:56:51;16.60;99.90
52435;DHT22;38354;52.892;6.148;2023-08-01T16:59:16;16.50;99.90
52435;DHT22;38354;52.892;6.148;2023-08-01T17:01:42;16.50;99.90
52435;DHT22;38354;52.892;6.148;2023-08-01T17:04:08;16.50;99.90
52435;DHT22;38354;52.892;6.148;2023-08-01T17:06:33;16.60;99.90
52435;DHT22;38354;52.892;6.148;2023-08-01T17:08:59;16.80;99.90
52435;DHT22;38354;52.892;6.148;2023-08-01T17:11:24;16.90;99.90
52435;DHT22;38354;52.892;6.148;2023-08-01T17:13:50;17.00;99.90
52435;DHT22;38354;52.892;6.148;2023-08-01T17:16:15;17.10;99.90
52435;DHT22;38354;52.892;6.148;2023-08-01T17:18:41;17.20;99.90
52435;DHT22;38354;52.892;6.148;2023-08-01T17:21:08;17.30;99.90
52435;DHT22;38354;52.892;6.148;2023-08-01T17:23:33;17.30;99.90
52435;DHT22;38354;52.892;6.148;2023-08-01T17:25:59;17.40;99.90
52435;DHT22;38354;52.892;6.148;2023-08-01T17:28:24;17.40;99.90
52435;DHT22;38354;52.892;6.148;2023-08-01T17:30:50;17.40;99.90
52435;DHT22;38354;52.892;6.148;2023-08-01T17:33:16;17.30;99.90
52435;DHT22;38354;52.892;6.148;2023-08-01T17:35:42;17.20;99.90
52435;DHT22;38354;52.892;6.148;2023-08-01T17:38:08;17.20;99.90
52435;DHT22;38354;52.892;6.148;2023-08-01T17:40:34;17.10;99.90
52435;DHT22;38354;52.892;6.148;2023-08-01T17:42:59;17.10;99.90
52435;DHT22;38354;52.892;6.148;2023-08-01T17:45:26;17.10;99.90
52435;DHT22;38354;52.892;6.148;2023-08-01T17:47:52;17.00;99.90
52435;DHT22;38354;52.892;6.148;2023-08-01T17:50:18;17.00;99.90
52435;DHT22;38354;52.892;6.148;2023-08-01T17:52:44;17.00;99.90
52435;DHT22;38354;52.892;6.148;2023-08-01T17:55:10;16.90;99.90
52435;DHT22;38354;52.892;6.148;2023-08-01T17:57:35;16.90;99.90
52435;DHT22;38354;52.892;6.148;2023-08-01T18:00:01;16.90;99.90
52435;DHT22;38354;52.892;6.148;2023-08-01T18:02:30;16.90;99.90
52435;DHT22;38354;52.892;6.148;2023-08-01T18:04:55;16.80;99.90
52435;DHT22;38354;52.892;6.148;2023-08-01T18:07:22;16.80;99.90
52435;DHT22;38354;52.892;6.148;2023-08-01T18:09:48;16.80;99.90
52435;DHT22;38354;52.892;6.148;2023-08-01T18:12:14;16.80;99.90
52435;DHT22;38354;52.892;6.148;2023-08-01T18:14:40;16.70;99.90
52435;DHT22;38354;52.892;6.148;2023-08-01T18:17:05;16.60;99.90
52435;DHT22;38354;52.892;6.148;2023-08-01T18:19:32;16.60;99.90
52435;DHT22;38354;52.892;6.148;2023-08-01T18:21:57;16.60;99.90
52435;DHT22;38354;52.892;6.148;2023-08-01T18:24:23;16.50;99.90
52435;DHT22;38354;52.892;6.148;2023-08-01T18:26:48;16.50;99.90
52435;DHT22;38354;52.892;6.148;2023-08-01T18:29:14;16.40;99.90
52435;DHT22;38354;52.892;6.148;2023-08-01T18:31:39;16.40;99.90
52435;DHT22;38354;52.892;6.148;2023-08-01T18:34:05;16.40;99.90
52435;DHT22;38354;52.892;6.148;2023-08-01T18:36:30;16.30;99.90
52435;DHT22;38354;52.892;6.148;2023-08-01T18:38:56;16.40;99.90